sensor_id;sensor_type;location;lat;lon;timestamp;pressure;altitude;pressure_sealevel;temperature;humidity
6829;BME280;17930;48.592;8.868;2023-02-11T00:01:07;98770.75;;;-4.12;100.00
6829;BME280;17930;48.592;8.868;2023-02-11T00:03:34;98774.50;;;-4.16;100.00
6829;BME280;17930;48.592;8.868;2023-02-11T00:06:02;98771.00;;;-4.15;100.00
6829;BME280;17930;48.592;8.868;2023-02-11T00:08:29;98774.50;;;-4.16;100.00
6829;BME280;17930;48.592;8.868;2023-02-11T00:10:56;98777.19;;;-4.18;100.00
6829;BME280;17930;48.592;8.868;2023-02-11T00:13:24;98775.00;;;-4.22;100.00
6829;BME280;17930;48.592;8.868;2023-02-11T00:15:51;98759.84;;;-4.33;100.00
6829;BME280;17930;48.592;8.868;2023-02-11T00:18:20;98756.47;;;-4.43;100.00
6829;BME280;17930;48.592;8.868;2023-02-11T00:20:47;98767.59;;;-4.44;100.00
6829;BME280;17930;48.592;8.868;2023-02-11T00:23:13;98767.75;;;-4.36;100.00
6829;BME280;17930;48.592;8.868;2023-02-11T00:25:41;98765.88;;;-4.34;100.00
6829;BME280;17930;48.592;8.868;2023-02-11T00:28:09;98763.06;;;-4.31;100.00
6829;BME280;17930;48.592;8.868;2023-02-11T00:30:36;98764.13;;;-4.34;100.00
6829;BME280;17930;48.592;8.868;2023-02-11T00:33:03;98767.63;;;-4.35;100.00
6829;BME280;17930;48.592;8.868;2023-02-11T00:35:31;98774.72;;;-4.29;100.00
6829;BME280;17930;48.592;8.868;2023-02-11T00:37:57;98768.53;;;-4.36;100.00
6829;BME280;17930;48.592;8.868;2023-02-11T00:40:24;98769.06;;;-4.32;100.00
6829;BME280;17930;48.592;8.868;2023-02-11T00:42:51;98771.88;;;-4.35;100.00
6829;BME280;17930;48.592;8.868;2023-02-11T00:45:17;98762.66;;;-4.36;100.00
6829;BME280;17930;48.592;8.868;2023-02-11T00:47:45;98760.25;;;-4.38;100.00
6829;BME280;17930;48.592;8.868;2023-02-11T00:50:12;98753.88;;;-4.13;100.00
6829;BME280;17930;48.592;8.868;2023-02-11T00:52:40;98759.75;;;-4.13;100.00
6829;BME280;17930;48.592;8.868;2023-02-11T00:55:07;98761.38;;;-4.12;100.00
6829;BME280;17930;48.592;8.868;2023-02-11T00:57:34;98749.31;;;-4.19;100.00
6829;BME280;17930;48.592;8.868;2023-02-11T01:00:01;98751.03;;;-4.29;100.00
6829;BME280;17930;48.592;8.868;2023-02-11T01:02:28;98756.22;;;-4.40;100.00
6829;BME280;17930;48.592;8.868;2023-02-11T01:04:55;98748.47;;;-4.29;100.00
6829;BME280;17930;48.592;8.868;2023-02-11T01:07:22;98763.47;;;-4.36;100.00
6829;BME280;17930;48.592;8.868;2023-02-11T01:09:51;98768.53;;;-4.36;100.00
6829;BME280;17930;48.592;8.868;2023-02-11T01:12:17;98766.91;;;-4.46;100.00
6829;BME280;17930;48.592;8.868;2023-02-11T01:14:44;98755.38;;;-4.50;100.00
6829;BME280;17930;48.592;8.868;2023-02-11T01:17:11;98750.25;;;-4.59;100.00
6829;BME280;17930;48.592;8.868;2023-02-11T01:19:38;98742.63;;;-4.59;100.00
6829;BME280;17930;48.592;8.868;2023-02-11T01:22:04;98745.56;;;-4.64;100.00
6829;BME280;17930;48.592;8.868;2023-02-11T01:24:31;98742.69;;;-4.70;100.00
6829;BME280;17930;48.592;8.868;2023-02-11T01:26:59;98740.16;;;-4.70;100.00
6829;BME280;17930;48.592;8.868;2023-02-11T01:29:26;98735.91;;;-4.70;100.00
6829;BME280;17930;48.592;8.868;2023-02-11T01:31:53;98741.91;;;-4.71;100.00
6829;BME280;17930;48.592;8.868;2023-02-11T01:34:19;98745.13;;;-4.69;100.00
6829;BME280;17930;48.592;8.868;2023-02-11T01:36:46;98727.56;;;-4.81;100.00
6829;BME280;17930;48.592;8.868;2023-02-11T01:39:13;98728.16;;;-4.89;100.00
6829;BME280;17930;48.592;8.868;2023-02-11T01:41:39;98724.97;;;-4.91;100.00
6829;BME280;17930;48.592;8.868;2023-02-11T01:44:28;98724.69;;;-4.88;100.00
6829;BME280;17930;48.592;8.868;2023-02-11T01:46:55;98721.03;;;-4.65;100.00
6829;BME280;17930;48.592;8.868;2023-02-11T01:49:26;98717.13;;;-4.39;100.00
6829;BME280;17930;48.592;8.868;2023-02-11T01:51:56;98717.91;;;-4.39;100.00
6829;BME280;17930;48.592;8.868;2023-02-11T01:54:27;98715.63;;;-4.42;100.00
6829;BME280;17930;48.592;8.868;2023-02-11T01:57:15;98706.97;;;-4.02;100.00
6829;BME280;17930;48.592;8.868;2023-02-11T02:00:05;98711.25;;;-3.55;100.00
6829;BME280;17930;48.592;8.868;2023-02-11T02:02:37;98702.13;;;-3.39;100.00
6829;BME280;17930;48.592;8.868;2023-02-11T02:05:13;98699.44;;;-3.37;100.00
6829;BME280;17930;48.592;8.868;2023-02-11T02:07:44;98697.00;;;-3.39;100.00
6829;BME280;17930;48.592;8.868;2023-02-11T02:10:18;98691.88;;;-3.29;100.00
6829;BME280;17930;48.592;8.868;2023-02-11T02:12:46;98698.63;;;-3.47;100.00
6829;BME280;17930;48.592;8.868;2023-02-11T02:15:30;98693.56;;;-3.85;100.00
6829;BME280;17930;48.592;8.868;2023-02-11T02:18:02;98696.25;;;-4.05;100.00
6829;BME280;17930;48.592;8.868;2023-02-11T02:20:55;98686.16;;;-4.25;100.00
6829;BME280;17930;48.592;8.868;2023-02-11T02:23:46;98689.22;;;-4.41;100.00
6829;BME280;17930;48.592;8.868;2023-02-11T02:26:37;98684.41;;;-4.53;100.00
6829;BME280;17930;48.592;8.868;2023-02-11T02:29:38;98686.50;;;-4.58;100.00
6829;BME280;17930;48.592;8.868;2023-02-11T02:32:38;98681.84;;;-4.53;100.00
6829;BME280;17930;48.592;8.868;2023-02-11T02:35:14;98674.88;;;-4.51;100.00
6829;BME280;17930;48.592;8.868;2023-02-11T02:37:48;98675.31;;;-4.46;100.00
6829;BME280;17930;48.592;8.868;2023-02-11T02:40:30;98676.38;;;-4.49;100.00
6829;BME280;17930;48.592;8.868;2023-02-11T02:42:59;98673.25;;;-4.52;100.00
6829;BME280;17930;48.592;8.868;2023-02-11T02:45:27;98661.91;;;-4.48;100.00
6829;BME280;17930;48.592;8.868;2023-02-11T02:47:55;98664.59;;;-4.31;100.00
6829;BME280;17930;48.592;8.868;2023-02-11T02:50:25;98659.78;;;-4.24;100.00
6829;BME280;17930;48.592;8.868;2023-02-11T02:53:05;98666.06;;;-4.28;100.00
6829;BME280;17930;48.592;8.868;2023-02-11T02:55:43;98662.44;;;-4.35;100.00
6829;BME280;17930;48.592;8.868;2023-02-11T02:58:32;98666.72;;;-4.45;100.00
6829;BME280;17930;48.592;8.868;2023-02-11T03:01:07;98662.56;;;-4.56;100.00
6829;BME280;17930;48.592;8.868;2023-02-11T03:03:42;98659.63;;;-4.51;100.00
6829;BME280;17930;48.592;8.868;2023-02-11T03:06:16;98664.44;;;-4.48;100.00
6829;BME280;17930;48.592;8.868;2023-02-11T03:08:50;98658.16;;;-4.44;100.00
6829;BME280;17930;48.592;8.868;2023-02-11T03:11:21;98654.13;;;-4.47;100.00
6829;BME280;17930;48.592;8.868;2023-02-11T03:13:49;98658.16;;;-4.44;100.00
6829;BME280;17930;48.592;8.868;2023-02-11T03:16:19;98660.97;;;-4.47;100.00
6829;BME280;17930;48.592;8.868;2023-02-11T03:18:49;98661.63;;;-4.55;100.00
6829;BME280;17930;48.592;8.868;2023-02-11T03:21:19;98658.41;;;-4.66;100.00
6829;BME280;17930;48.592;8.868;2023-02-11T03:23:49;98653.16;;;-4.74;100.00
6829;BME280;17930;48.592;8.868;2023-02-11T03:26:22;98653.84;;;-4.62;100.00
6829;BME280;17930;48.592;8.868;2023-02-11T03:28:54;98649.16;;;-4.67;100.00
6829;BME280;17930;48.592;8.868;2023-02-11T03:31:29;98638.53;;;-4.72;100.00
6829;BME280;17930;48.592;8.868;2023-02-11T03:34:02;98645.00;;;-4.68;100.00
6829;BME280;17930;48.592;8.868;2023-02-11T03:36:34;98644.72;;;-4.65;100.00
6829;BME280;17930;48.592;8.868;2023-02-11T03:39:03;98654.09;;;-4.65;100.00
6829;BME280;17930;48.592;8.868;2023-02-11T03:41:32;98655.84;;;-4.66;100.00
6829;BME280;17930;48.592;8.868;2023-02-11T03:44:00;98659.47;;;-4.68;100.00
6829;BME280;17930;48.592;8.868;2023-02-11T03:46:30;98665.06;;;-4.65;100.00
6829;BME280;17930;48.592;8.868;2023-02-11T03:49:01;98668.03;;;-4.60;100.00
6829;BME280;17930;48.592;8.868;2023-02-11T03:51:29;98663.50;;;-4.57;100.00
6829;BME280;17930;48.592;8.868;2023-02-11T03:53:59;98669.66;;;-4.59;100.00
6829;BME280;17930;48.592;8.868;2023-02-11T03:56:31;98669.91;;;-4.62;100.00
6829;BME280;17930;48.592;8.868;2023-02-11T03:58:58;98655.22;;;-4.49;100.00
6829;BME280;17930;48.592;8.868;2023-02-11T04:01:25;98648.78;;;-4.15;100.00
6829;BME280;17930;48.592;8.868;2023-02-11T04:03:52;98628.44;;;-4.15;100.00
6829;BME280;17930;48.592;8.868;2023-02-11T04:06:20;98616.34;;;-3.95;100.00
6829;BME280;17930;48.592;8.868;2023-02-11T04:08:46;98636.72;;;-3.95;100.00
6829;BME280;17930;48.592;8.868;2023-02-11T04:11:13;98638.34;;;-4.03;100.00
6829;BME280;17930;48.592;8.868;2023-02-11T04:13:40;98645.97;;;-4.12;100.00
6829;BME280;17930;48.592;8.868;2023-02-11T04:16:06;98648.94;;;-4.17;100.00
6829;BME280;17930;48.592;8.868;2023-02-11T04:18:33;98636.78;;;-3.49;100.00
6829;BME280;17930;48.592;8.868;2023-02-11T04:21:00;98645.69;;;-3.26;100.00
6829;BME280;17930;48.592;8.868;2023-02-11T04:23:28;98641.88;;;-3.40;100.00
6829;BME280;17930;48.592;8.868;2023-02-11T04:25:55;98641.44;;;-3.35;100.00
6829;BME280;17930;48.592;8.868;2023-02-11T04:28:21;98650.22;;;-3.57;100.00
6829;BME280;17930;48.592;8.868;2023-02-11T04:30:48;98644.47;;;-3.22;100.00
6829;BME280;17930;48.592;8.868;2023-02-11T04:33:15;98647.59;;;-3.28;100.00
6829;BME280;17930;48.592;8.868;2023-02-11T04:35:42;98648.72;;;-3.40;100.00
6829;BME280;17930;48.592;8.868;2023-02-11T04:38:09;98646.09;;;-3.21;100.00
6829;BME280;17930;48.592;8.868;2023-02-11T04:40:37;98661.78;;;-3.16;100.00
6829;BME280;17930;48.592;8.868;2023-02-11T04:43:04;98659.75;;;-3.04;100.00
6829;BME280;17930;48.592;8.868;2023-02-11T04:45:32;98654.16;;;-2.63;100.00
6829;BME280;17930;48.592;8.868;2023-02-11T04:48:00;98652.78;;;-2.57;100.00
6829;BME280;17930;48.592;8.868;2023-02-11T04:50:27;98653.97;;;-2.52;100.00
6829;BME280;17930;48.592;8.868;2023-02-11T04:52:54;98648.34;;;-2.55;100.00
6829;BME280;17930;48.592;8.868;2023-02-11T04:55:20;98654.00;;;-2.61;100.00
6829;BME280;17930;48.592;8.868;2023-02-11T04:57:48;98646.78;;;-2.66;100.00
6829;BME280;17930;48.592;8.868;2023-02-11T05:00:16;98641.00;;;-2.41;100.00
6829;BME280;17930;48.592;8.868;2023-02-11T05:02:42;98641.59;;;-2.47;100.00
6829;BME280;17930;48.592;8.868;2023-02-11T05:05:09;98648.06;;;-2.53;100.00
6829;BME280;17930;48.592;8.868;2023-02-11T05:07:35;98644.22;;;-2.66;100.00
6829;BME280;17930;48.592;8.868;2023-02-11T05:10:02;98642.25;;;-2.72;100.00
6829;BME280;17930;48.592;8.868;2023-02-11T05:12:29;98644.63;;;-2.61;100.00
6829;BME280;17930;48.592;8.868;2023-02-11T05:14:57;98635.44;;;-2.54;100.00
6829;BME280;17930;48.592;8.868;2023-02-11T05:17:24;98635.53;;;-2.29;100.00
6829;BME280;17930;48.592;8.868;2023-02-11T05:19:50;98622.63;;;-2.27;100.00
6829;BME280;17930;48.592;8.868;2023-02-11T05:22:17;98630.78;;;-2.41;100.00
6829;BME280;17930;48.592;8.868;2023-02-11T05:24:44;98626.66;;;-2.52;100.00
6829;BME280;17930;48.592;8.868;2023-02-11T05:27:10;98632.88;;;-2.54;100.00
6829;BME280;17930;48.592;8.868;2023-02-11T05:29:37;98621.66;;;-2.61;100.00
6829;BME280;17930;48.592;8.868;2023-02-11T05:32:05;98625.28;;;-2.63;100.00
6829;BME280;17930;48.592;8.868;2023-02-11T05:34:33;98612.47;;;-2.37;100.00
6829;BME280;17930;48.592;8.868;2023-02-11T05:37:00;98604.28;;;-2.40;100.00
6829;BME280;17930;48.592;8.868;2023-02-11T05:39:26;98606.19;;;-2.42;100.00
6829;BME280;17930;48.592;8.868;2023-02-11T05:41:53;98600.28;;;-2.25;100.00
6829;BME280;17930;48.592;8.868;2023-02-11T05:44:20;98594.88;;;-2.40;100.00
6829;BME280;17930;48.592;8.868;2023-02-11T05:46:46;98596.56;;;-2.31;100.00
6829;BME280;17930;48.592;8.868;2023-02-11T05:49:15;98613.84;;;-2.42;100.00
6829;BME280;17930;48.592;8.868;2023-02-11T05:51:41;98605.84;;;-2.47;100.00
6829;BME280;17930;48.592;8.868;2023-02-11T05:54:08;98600.44;;;-2.44;100.00
6829;BME280;17930;48.592;8.868;2023-02-11T05:56:35;98591.59;;;-2.32;100.00
6829;BME280;17930;48.592;8.868;2023-02-11T05:59:01;98567.28;;;-2.36;100.00
6829;BME280;17930;48.592;8.868;2023-02-11T06:01:28;98570.81;;;-2.37;100.00
6829;BME280;17930;48.592;8.868;2023-02-11T06:03:55;98572.06;;;-2.41;100.00
6829;BME280;17930;48.592;8.868;2023-02-11T06:06:23;98556.88;;;-2.43;100.00
6829;BME280;17930;48.592;8.868;2023-02-11T06:08:50;98554.31;;;-2.25;100.00
6829;BME280;17930;48.592;8.868;2023-02-11T06:11:17;98559.50;;;-1.92;100.00
6829;BME280;17930;48.592;8.868;2023-02-11T06:13:44;98569.47;;;-2.06;100.00
6829;BME280;17930;48.592;8.868;2023-02-11T06:16:11;98553.25;;;-1.98;100.00
6829;BME280;17930;48.592;8.868;2023-02-11T06:18:38;98569.81;;;-2.02;100.00
6829;BME280;17930;48.592;8.868;2023-02-11T06:21:06;98578.69;;;-1.88;100.00
6829;BME280;17930;48.592;8.868;2023-02-11T06:23:34;98575.84;;;-1.85;100.00
6829;BME280;17930;48.592;8.868;2023-02-11T06:26:02;98569.63;;;-1.83;100.00
6829;BME280;17930;48.592;8.868;2023-02-11T06:28:29;98588.31;;;-1.82;100.00
6829;BME280;17930;48.592;8.868;2023-02-11T06:30:56;98594.00;;;-1.71;100.00
6829;BME280;17930;48.592;8.868;2023-02-11T06:33:23;98606.78;;;-1.71;100.00
6829;BME280;17930;48.592;8.868;2023-02-11T06:35:50;98613.88;;;-1.57;100.00
6829;BME280;17930;48.592;8.868;2023-02-11T06:38:16;98607.28;;;-1.42;100.00
6829;BME280;17930;48.592;8.868;2023-02-11T06:40:47;98609.06;;;-1.43;100.00
6829;BME280;17930;48.592;8.868;2023-02-11T06:43:14;98614.16;;;-1.43;100.00
6829;BME280;17930;48.592;8.868;2023-02-11T06:45:41;98615.91;;;-1.43;100.00
6829;BME280;17930;48.592;8.868;2023-02-11T06:48:08;98618.13;;;-1.48;100.00
6829;BME280;17930;48.592;8.868;2023-02-11T06:50:34;98616.22;;;-1.46;100.00
6829;BME280;17930;48.592;8.868;2023-02-11T06:53:01;98615.25;;;-1.45;100.00
6829;BME280;17930;48.592;8.868;2023-02-11T06:55:28;98605.38;;;-1.40;100.00
6829;BME280;17930;48.592;8.868;2023-02-11T06:57:56;98602.06;;;-1.33;100.00
6829;BME280;17930;48.592;8.868;2023-02-11T07:00:23;98592.97;;;-1.27;100.00
6829;BME280;17930;48.592;8.868;2023-02-11T07:02:51;98589.47;;;-0.85;100.00
6829;BME280;17930;48.592;8.868;2023-02-11T07:05:18;98586.44;;;-0.89;100.00
6829;BME280;17930;48.592;8.868;2023-02-11T07:07:44;98592.81;;;-0.93;100.00
6829;BME280;17930;48.592;8.868;2023-02-11T07:10:11;98605.03;;;-0.71;100.00
6829;BME280;17930;48.592;8.868;2023-02-11T07:12:38;98609.31;;;-0.87;100.00
6829;BME280;17930;48.592;8.868;2023-02-11T07:15:07;98603.31;;;-1.03;100.00
6829;BME280;17930;48.592;8.868;2023-02-11T07:17:34;98609.88;;;-1.01;100.00
6829;BME280;17930;48.592;8.868;2023-02-11T07:20:01;98620.91;;;-1.08;100.00
6829;BME280;17930;48.592;8.868;2023-02-11T07:22:28;98611.72;;;-0.86;100.00
6829;BME280;17930;48.592;8.868;2023-02-11T07:24:55;98616.16;;;-0.96;100.00
6829;BME280;17930;48.592;8.868;2023-02-11T07:27:21;98625.16;;;-0.84;100.00
6829;BME280;17930;48.592;8.868;2023-02-11T07:29:48;98621.91;;;-0.94;100.00
6829;BME280;17930;48.592;8.868;2023-02-11T07:32:16;98618.72;;;-0.88;100.00
6829;BME280;17930;48.592;8.868;2023-02-11T07:34:43;98624.03;;;-0.81;100.00
6829;BME280;17930;48.592;8.868;2023-02-11T07:37:10;98617.97;;;-0.80;100.00
6829;BME280;17930;48.592;8.868;2023-02-11T07:39:36;98612.13;;;-0.57;100.00
6829;BME280;17930;48.592;8.868;2023-02-11T07:42:04;98603.94;;;-0.52;100.00
6829;BME280;17930;48.592;8.868;2023-02-11T07:44:31;98607.97;;;-0.50;100.00
6829;BME280;17930;48.592;8.868;2023-02-11T07:46:59;98608.00;;;-0.42;100.00
6829;BME280;17930;48.592;8.868;2023-02-11T07:49:27;98619.94;;;-0.58;100.00
6829;BME280;17930;48.592;8.868;2023-02-11T07:51:54;98626.56;;;-0.40;100.00
6829;BME280;17930;48.592;8.868;2023-02-11T07:54:21;98629.00;;;-0.15;100.00
6829;BME280;17930;48.592;8.868;2023-02-11T07:56:50;98638.78;;;-0.10;100.00
6829;BME280;17930;48.592;8.868;2023-02-11T07:59:16;98641.34;;;0.05;100.00
6829;BME280;17930;48.592;8.868;2023-02-11T08:01:43;98645.88;;;0.11;100.00
6829;BME280;17930;48.592;8.868;2023-02-11T08:04:10;98641.69;;;0.02;100.00
6829;BME280;17930;48.592;8.868;2023-02-11T08:06:40;98648.09;;;0.06;100.00
6829;BME280;17930;48.592;8.868;2023-02-11T08:09:13;98626.94;;;0.28;100.00
6829;BME280;17930;48.592;8.868;2023-02-11T08:11:39;98626.59;;;0.47;100.00
6829;BME280;17930;48.592;8.868;2023-02-11T08:14:07;98622.56;;;0.68;100.00
6829;BME280;17930;48.592;8.868;2023-02-11T08:16:35;98618.53;;;0.74;100.00
6829;BME280;17930;48.592;8.868;2023-02-11T08:19:06;98617.88;;;0.80;100.00
6829;BME280;17930;48.592;8.868;2023-02-11T08:21:33;98611.69;;;1.04;100.00
6829;BME280;17930;48.592;8.868;2023-02-11T08:24:02;98604.38;;;2.43;100.00
6829;BME280;17930;48.592;8.868;2023-02-11T08:26:31;98589.72;;;4.06;100.00
6829;BME280;17930;48.592;8.868;2023-02-11T08:29:00;98592.56;;;5.00;100.00
6829;BME280;17930;48.592;8.868;2023-02-11T08:31:29;98600.09;;;5.28;100.00
6829;BME280;17930;48.592;8.868;2023-02-11T08:33:56;98586.25;;;5.55;100.00
6829;BME280;17930;48.592;8.868;2023-02-11T08:36:24;98589.97;;;6.06;100.00
6829;BME280;17930;48.592;8.868;2023-02-11T08:38:53;98587.16;;;6.71;100.00
6829;BME280;17930;48.592;8.868;2023-02-11T08:41:21;98582.41;;;6.49;100.00
6829;BME280;17930;48.592;8.868;2023-02-11T08:43:48;98586.44;;;7.27;100.00
6829;BME280;17930;48.592;8.868;2023-02-11T08:46:17;98584.34;;;6.86;100.00
6829;BME280;17930;48.592;8.868;2023-02-11T08:48:44;98591.75;;;7.45;100.00
6829;BME280;17930;48.592;8.868;2023-02-11T08:51:13;98590.28;;;7.06;100.00
6829;BME280;17930;48.592;8.868;2023-02-11T08:53:40;98600.66;;;7.06;100.00
6829;BME280;17930;48.592;8.868;2023-02-11T08:56:08;98599.13;;;6.66;100.00
6829;BME280;17930;48.592;8.868;2023-02-11T08:58:37;98595.97;;;6.51;100.00
6829;BME280;17930;48.592;8.868;2023-02-11T09:01:08;98597.53;;;6.01;100.00
6829;BME280;17930;48.592;8.868;2023-02-11T09:03:34;98604.13;;;5.04;100.00
6829;BME280;17930;48.592;8.868;2023-02-11T09:06:03;98607.94;;;4.74;100.00
6829;BME280;17930;48.592;8.868;2023-02-11T09:08:30;98600.13;;;4.40;100.00
6829;BME280;17930;48.592;8.868;2023-02-11T09:10:57;98591.72;;;4.93;100.00
6829;BME280;17930;48.592;8.868;2023-02-11T09:13:23;98592.75;;;4.64;100.00
6829;BME280;17930;48.592;8.868;2023-02-11T09:15:51;98585.00;;;4.37;100.00
6829;BME280;17930;48.592;8.868;2023-02-11T09:18:18;98583.75;;;5.21;100.00
6829;BME280;17930;48.592;8.868;2023-02-11T09:20:45;98590.78;;;6.19;100.00
6829;BME280;17930;48.592;8.868;2023-02-11T09:23:11;98584.44;;;7.29;100.00
6829;BME280;17930;48.592;8.868;2023-02-11T09:25:38;98584.94;;;7.51;100.00
6829;BME280;17930;48.592;8.868;2023-02-11T09:28:06;98579.66;;;7.70;100.00
6829;BME280;17930;48.592;8.868;2023-02-11T09:30:32;98578.13;;;8.48;100.00
6829;BME280;17930;48.592;8.868;2023-02-11T09:33:01;98566.75;;;8.85;100.00
6829;BME280;17930;48.592;8.868;2023-02-11T09:35:27;98570.00;;;8.80;100.00
6829;BME280;17930;48.592;8.868;2023-02-11T09:37:54;98582.50;;;8.72;100.00
6829;BME280;17930;48.592;8.868;2023-02-11T09:40:21;98581.81;;;8.83;100.00
6829;BME280;17930;48.592;8.868;2023-02-11T09:42:50;98577.03;;;9.33;100.00
6829;BME280;17930;48.592;8.868;2023-02-11T09:45:21;98576.31;;;9.26;100.00
6829;BME280;17930;48.592;8.868;2023-02-11T09:47:53;98576.00;;;9.17;100.00
6829;BME280;17930;48.592;8.868;2023-02-11T09:50:29;98575.22;;;9.81;100.00
6829;BME280;17930;48.592;8.868;2023-02-11T09:52:59;98576.59;;;9.36;100.00
6829;BME280;17930;48.592;8.868;2023-02-11T09:55:30;98576.38;;;8.84;100.00
6829;BME280;17930;48.592;8.868;2023-02-11T09:58:01;98574.81;;;7.36;100.00
6829;BME280;17930;48.592;8.868;2023-02-11T10:00:32;98580.44;;;6.51;100.00
6829;BME280;17930;48.592;8.868;2023-02-11T10:03:14;98582.38;;;5.85;100.00
6829;BME280;17930;48.592;8.868;2023-02-11T10:05:59;98583.72;;;5.74;100.00
6829;BME280;17930;48.592;8.868;2023-02-11T10:08:38;98580.28;;;5.48;100.00
6829;BME280;17930;48.592;8.868;2023-02-11T10:11:11;98588.72;;;5.76;100.00
6829;BME280;17930;48.592;8.868;2023-02-11T10:13:50;98587.97;;;6.01;100.00
6829;BME280;17930;48.592;8.868;2023-02-11T10:16:35;98576.91;;;7.09;100.00
6829;BME280;17930;48.592;8.868;2023-02-11T10:19:19;98587.28;;;8.75;100.00
6829;BME280;17930;48.592;8.868;2023-02-11T10:22:00;98576.44;;;10.60;100.00
6829;BME280;17930;48.592;8.868;2023-02-11T10:24:30;98560.06;;;11.60;100.00
6829;BME280;17930;48.592;8.868;2023-02-11T10:26:56;98561.59;;;12.17;98.56
6829;BME280;17930;48.592;8.868;2023-02-11T10:29:33;98563.03;;;12.08;94.52
6829;BME280;17930;48.592;8.868;2023-02-11T10:32:03;98560.22;;;12.79;91.90
6829;BME280;17930;48.592;8.868;2023-02-11T10:34:31;98546.91;;;13.19;86.42
6829;BME280;17930;48.592;8.868;2023-02-11T10:36:59;98551.00;;;13.79;82.29
6829;BME280;17930;48.592;8.868;2023-02-11T10:39:26;98542.78;;;13.49;79.11
6829;BME280;17930;48.592;8.868;2023-02-11T10:41:56;98543.78;;;13.90;78.94
6829;BME280;17930;48.592;8.868;2023-02-11T10:44:27;98547.19;;;13.91;77.49
6829;BME280;17930;48.592;8.868;2023-02-11T10:46:56;98549.38;;;13.09;77.14
6829;BME280;17930;48.592;8.868;2023-02-11T10:49:38;98551.13;;;12.17;80.52
6829;BME280;17930;48.592;8.868;2023-02-11T10:52:17;98541.69;;;12.65;82.42
6829;BME280;17930;48.592;8.868;2023-02-11T10:55:04;98540.50;;;12.07;82.92
6829;BME280;17930;48.592;8.868;2023-02-11T10:57:36;98538.66;;;13.10;82.67
6829;BME280;17930;48.592;8.868;2023-02-11T11:00:18;98531.28;;;12.86;81.40
6829;BME280;17930;48.592;8.868;2023-02-11T11:02:52;98532.88;;;13.08;80.63
6829;BME280;17930;48.592;8.868;2023-02-11T11:05:25;98511.94;;;13.82;78.40
6829;BME280;17930;48.592;8.868;2023-02-11T11:07:56;98516.97;;;14.10;76.37
6829;BME280;17930;48.592;8.868;2023-02-11T11:10:30;98513.84;;;13.60;76.83
6829;BME280;17930;48.592;8.868;2023-02-11T11:13:00;98511.34;;;14.01;75.13
6829;BME280;17930;48.592;8.868;2023-02-11T11:15:28;98500.63;;;14.75;72.59
6829;BME280;17930;48.592;8.868;2023-02-11T11:18:12;98486.94;;;15.24;71.41
6829;BME280;17930;48.592;8.868;2023-02-11T11:20:43;98484.69;;;15.62;69.32
6829;BME280;17930;48.592;8.868;2023-02-11T11:23:21;98487.34;;;15.92;69.14
6829;BME280;17930;48.592;8.868;2023-02-11T11:26:00;98486.28;;;15.83;67.66
6829;BME280;17930;48.592;8.868;2023-02-11T11:28:28;98490.53;;;16.39;66.09
6829;BME280;17930;48.592;8.868;2023-02-11T11:30:58;98496.31;;;16.36;65.30
6829;BME280;17930;48.592;8.868;2023-02-11T11:33:27;98487.78;;;16.83;64.90
6829;BME280;17930;48.592;8.868;2023-02-11T11:35:59;98485.63;;;17.05;63.59
6829;BME280;17930;48.592;8.868;2023-02-11T11:38:28;98485.75;;;16.65;63.57
6829;BME280;17930;48.592;8.868;2023-02-11T11:41:22;98491.47;;;15.43;65.26
6829;BME280;17930;48.592;8.868;2023-02-11T11:43:54;98490.34;;;15.30;66.65
6829;BME280;17930;48.592;8.868;2023-02-11T11:46:28;98492.38;;;16.38;65.45
6829;BME280;17930;48.592;8.868;2023-02-11T11:49:02;98479.97;;;16.53;65.27
6829;BME280;17930;48.592;8.868;2023-02-11T11:51:32;98469.72;;;18.06;61.96
6829;BME280;17930;48.592;8.868;2023-02-11T11:54:05;98466.34;;;18.00;60.02
6829;BME280;17930;48.592;8.868;2023-02-11T11:56:36;98470.16;;;17.90;60.19
6829;BME280;17930;48.592;8.868;2023-02-11T11:59:10;98467.44;;;17.03;61.49
6829;BME280;17930;48.592;8.868;2023-02-11T12:01:49;98471.38;;;17.06;61.22
6829;BME280;17930;48.592;8.868;2023-02-11T12:04:41;98461.28;;;19.12;58.80
6829;BME280;17930;48.592;8.868;2023-02-11T12:07:19;98456.66;;;18.99;58.17
6829;BME280;17930;48.592;8.868;2023-02-11T12:10:06;98453.81;;;19.74;57.03
6829;BME280;17930;48.592;8.868;2023-02-11T12:12:39;98450.81;;;20.75;54.72
6829;BME280;17930;48.592;8.868;2023-02-11T12:15:22;98445.22;;;20.32;53.08
6829;BME280;17930;48.592;8.868;2023-02-11T12:18:03;98463.72;;;18.34;56.38
6829;BME280;17930;48.592;8.868;2023-02-11T12:20:38;98467.63;;;19.52;55.10
6829;BME280;17930;48.592;8.868;2023-02-11T12:23:22;98460.81;;;18.58;56.17
6829;BME280;17930;48.592;8.868;2023-02-11T12:25:59;98454.00;;;19.04;55.55
6829;BME280;17930;48.592;8.868;2023-02-11T12:28:37;98450.78;;;19.80;54.54
6829;BME280;17930;48.592;8.868;2023-02-11T12:31:16;98452.47;;;19.76;53.84
6829;BME280;17930;48.592;8.868;2023-02-11T12:34:04;98444.94;;;19.10;54.50
6829;BME280;17930;48.592;8.868;2023-02-11T12:36:55;98445.31;;;19.58;54.04
6829;BME280;17930;48.592;8.868;2023-02-11T12:39:32;98446.75;;;19.09;54.00
6829;BME280;17930;48.592;8.868;2023-02-11T12:42:18;98443.56;;;19.31;54.05
6829;BME280;17930;48.592;8.868;2023-02-11T12:45:16;98436.19;;;18.86;54.21
6829;BME280;17930;48.592;8.868;2023-02-11T12:47:58;98436.00;;;19.79;52.89
6829;BME280;17930;48.592;8.868;2023-02-11T12:50:34;98431.06;;;19.36;53.36
6829;BME280;17930;48.592;8.868;2023-02-11T12:53:29;98436.28;;;19.96;53.08
6829;BME280;17930;48.592;8.868;2023-02-11T12:56:08;98427.34;;;20.51;50.46
6829;BME280;17930;48.592;8.868;2023-02-11T12:58:39;98430.06;;;20.19;50.56
6829;BME280;17930;48.592;8.868;2023-02-11T13:01:11;98433.88;;;20.13;51.63
6829;BME280;17930;48.592;8.868;2023-02-11T13:03:45;98429.66;;;20.25;50.97
6829;BME280;17930;48.592;8.868;2023-02-11T13:06:16;98429.63;;;21.72;50.96
6829;BME280;17930;48.592;8.868;2023-02-11T13:08:46;98430.75;;;20.96;49.64
6829;BME280;17930;48.592;8.868;2023-02-11T13:11:17;98430.00;;;20.37;50.65
6829;BME280;17930;48.592;8.868;2023-02-11T13:13:51;98422.41;;;20.31;51.04
6829;BME280;17930;48.592;8.868;2023-02-11T13:16:29;98418.16;;;20.48;50.95
6829;BME280;17930;48.592;8.868;2023-02-11T13:19:02;98421.09;;;21.00;49.23
6829;BME280;17930;48.592;8.868;2023-02-11T13:21:37;98421.31;;;20.90;48.82
6829;BME280;17930;48.592;8.868;2023-02-11T13:24:18;98409.66;;;19.69;50.39